Willow Run Airport
KYIP : now visible

Airfield :











YOU CAN JOIN US ON...

 
LOGIN :

Register | Disclaimer

   EN    FR    IT 

 









Legend :    VFR   Marginal VFR   IFR   Intensive IFR   Very Intensive IFR
Visi :
Ceiling :
>= 8 km
>= 3000ft
5 to 8 km
1000 to 3000 ft
1500m to 5 km
500 to 1000 ft
800 to 1500m
200 to 500 ft
< 800m
< 200 ft
Symbols :   Thunderstorms  Fog  Heavy snow  Heavy precipitations  Wind > 20 kt






- Airport Elevation : 716 ft
- IATA code : YIP


KYIP - Willow Run

CURRENT METAR :
  • 100453Z 26020G29KT 10SM BKN020 BKN026 OVC050 09/05 A2954 RMK AO2 PK WND 24036/0412 RAB0357E07 SLP003 P0000 T00940050 401110089

EXPIRED METARs :
  • 100353Z 24016G27KT 10SM BKN022 BKN030 OVC045 11/06 A2950 RMK AO2 PK WND 24027/0351 RAB35E45 SLP990 P0000 T01060061
  • 100336Z 24013G24KT 10SM -RA BKN022 OVC030 11/06 A2950 RMK AO2 PK WND 23026/0300 RAB35 P0000 T01060061
  • 100329Z 24017G23KT 10SM SCT024 OVC030 11/06 A2950 RMK AO2 PK WND 23026/0300 T01060061
  • 100320Z 23010G24KT 10SM BKN026 OVC034 11/07 A2950 RMK AO2 PK WND 23026/0300 T01060067
  • 100253Z 24015G24KT 10SM FEW025 BKN032 OVC040 11/06 A2949 RMK AO2 PK WND 25027/0231 SLP984 60000 T01060061 53005

TAF KYIP
Valid from the 10 at 03:00 until the 11 at 00:00 UTC


100317Z 1003/1024 24015G25KT P6SM -SHRA SCT015 BKN025 OVC050
TEMPO 1003/1005 25018G28KT 5SM -SHRA BKN015 OVC025
FM100600 27017G27KT P6SM BKN028 OVC040
FM101200 29012G22KT P6SM -SHSN SCT028 OVC045
FM101900 27014KT P6SM BKN045



MET'MAP, your aeronautical weather chart ! - Copyright ORBIFLY December 2007 - Disclaimer

ORBIFLY MET'MAP TEAM :

Programming & Development : Alexandra Zaïnal
Concept & original design : Baudouin d'Aumeries
Assistance for programming : Marc-Olivier Méhu
Technical & hardware support : Manuel Goepfert

Contact : metmap@orbifly.com




SOURCES & CREDITS :

   NOAA       Earth
Advisory